createdAt,value
2023-11-01T00:02:07.487Z,13.42
2023-11-01T00:05:09.768Z,13.34
2023-11-01T00:08:12.099Z,13.45
2023-11-01T00:11:14.333Z,13.41
2023-11-01T00:14:16.626Z,13.30
2023-11-01T00:17:19.010Z,13.34
2023-11-01T00:20:21.319Z,13.32
2023-11-01T00:23:23.540Z,13.30
2023-11-01T00:26:25.905Z,13.25
2023-11-01T00:29:30.944Z,13.25
2023-11-01T00:32:33.372Z,13.22
2023-11-01T00:35:36.667Z,13.17
2023-11-01T00:38:38.998Z,13.03
2023-11-01T00:41:41.232Z,13.05
2023-11-01T00:44:43.604Z,13.14
2023-11-01T00:47:45.912Z,13.16
2023-11-01T00:50:48.270Z,13.09
2023-11-01T00:53:50.493Z,13.14
2023-11-01T00:56:52.682Z,13.13
2023-11-01T00:59:55.394Z,13.14
2023-11-01T01:02:57.936Z,13.17
2023-11-01T01:06:01.117Z,13.05
2023-11-01T01:09:03.738Z,13.09
2023-11-01T01:12:06.510Z,12.97
2023-11-01T01:15:09.045Z,12.98
2023-11-01T01:18:11.669Z,12.99
2023-11-01T01:21:16.848Z,12.93
2023-11-01T01:24:19.062Z,13.07
2023-11-01T01:27:21.243Z,13.08
2023-11-01T01:30:23.466Z,13.06
2023-11-01T01:33:28.359Z,12.93
2023-11-01T01:36:30.638Z,13.04
2023-11-01T01:39:32.830Z,13.08
2023-11-01T01:42:35.123Z,13.12
2023-11-01T01:45:37.687Z,13.14
2023-11-01T01:48:40.933Z,13.11
2023-11-01T01:51:43.547Z,13.05
2023-11-01T01:54:45.780Z,13.02
2023-11-01T01:57:48.106Z,13.12
2023-11-01T02:00:51.449Z,13.11
2023-11-01T02:03:53.728Z,13.17
2023-11-01T02:06:55.975Z,13.20
2023-11-01T02:09:58.174Z,13.18
2023-11-01T02:13:13.712Z,13.14
2023-11-01T02:16:15.917Z,13.26
2023-11-01T02:19:18.357Z,13.14
2023-11-01T02:22:20.749Z,13.23
2023-11-01T02:25:23.062Z,13.10
2023-11-01T02:28:25.288Z,13.19
2023-11-01T02:31:27.616Z,13.18
2023-11-01T02:34:30.146Z,13.11
2023-11-01T02:37:32.377Z,13.12
2023-11-01T02:40:36.203Z,13.11
2023-11-01T02:43:38.353Z,13.11
2023-11-01T02:46:40.631Z,13.12
2023-11-01T02:49:42.814Z,13.09
2023-11-01T02:52:45.010Z,13.12
2023-11-01T02:55:47.155Z,13.16
2023-11-01T02:58:49.322Z,13.13
2023-11-01T03:01:52.147Z,13.11
2023-11-01T03:04:54.338Z,13.09
2023-11-01T03:07:57.473Z,13.15
2023-11-01T03:10:59.818Z,13.11
2023-11-01T03:14:02.068Z,13.10
2023-11-01T03:17:04.853Z,13.09
2023-11-01T03:20:14.591Z,13.08
2023-11-01T03:23:16.834Z,13.11
2023-11-01T03:26:19.168Z,13.00
2023-11-01T03:29:22.000Z,13.00
2023-11-01T03:32:24.286Z,13.00
2023-11-01T03:35:27.182Z,12.99
2023-11-01T03:38:29.433Z,13.01
2023-11-01T03:41:32.121Z,13.04
2023-11-01T03:44:35.179Z,13.03
2023-11-01T03:47:37.526Z,13.07
2023-11-01T03:50:39.802Z,13.10
2023-11-01T03:53:42.067Z,13.08
2023-11-01T03:56:44.486Z,13.11
2023-11-01T03:59:46.928Z,13.09
2023-11-01T04:02:53.504Z,13.16
2023-11-01T04:05:56.172Z,13.16
2023-11-01T04:09:00.090Z,13.15
2023-11-01T04:12:02.250Z,13.12
2023-11-01T04:15:07.533Z,13.10
2023-11-01T04:18:09.789Z,13.08
2023-11-01T04:21:12.073Z,13.08
2023-11-01T04:24:14.892Z,13.02
2023-11-01T04:27:17.071Z,12.97
2023-11-01T04:30:19.393Z,12.97
2023-11-01T04:33:21.572Z,12.92
2023-11-01T04:36:26.546Z,12.80
2023-11-01T04:39:28.809Z,12.80
2023-11-01T04:42:31.010Z,12.82
2023-11-01T04:45:33.218Z,12.82
2023-11-01T04:48:35.412Z,12.75
2023-11-01T04:51:37.656Z,12.75
2023-11-01T04:54:39.876Z,12.84
2023-11-01T04:57:44.880Z,12.86
2023-11-01T05:00:47.068Z,12.84
2023-11-01T05:03:49.912Z,12.86
2023-11-01T05:06:52.627Z,12.97
2023-11-01T05:09:54.793Z,13.03
2023-11-01T05:12:58.562Z,12.92
2023-11-01T05:16:00.746Z,12.87
2023-11-01T05:19:02.973Z,12.79
2023-11-01T05:22:05.132Z,12.93
2023-11-01T05:25:14.871Z,12.88
2023-11-01T05:28:17.405Z,12.84
2023-11-01T05:31:19.612Z,12.72
2023-11-01T05:34:21.812Z,12.72
2023-11-01T05:37:24.001Z,12.64
2023-11-01T05:40:26.182Z,12.57
2023-11-01T05:43:28.369Z,12.53
2023-11-01T05:46:30.733Z,12.44
2023-11-01T05:49:33.034Z,12.44
2023-11-01T05:52:35.677Z,12.46
2023-11-01T05:55:48.960Z,12.44
2023-11-01T05:59:00.798Z,12.52
2023-11-01T06:02:03.025Z,12.59
2023-11-01T06:05:05.668Z,12.64
2023-11-01T06:08:10.210Z,12.77
2023-11-01T06:11:12.558Z,12.72
2023-11-01T06:14:14.987Z,12.82
2023-11-01T06:17:17.414Z,12.85
2023-11-01T06:20:19.669Z,12.83
2023-11-01T06:23:21.890Z,12.90
2023-11-01T06:26:24.128Z,12.96
2023-11-01T06:29:26.450Z,13.05
2023-11-01T06:32:28.637Z,13.20
2023-11-01T06:35:30.829Z,13.26
2023-11-01T06:38:33.560Z,13.35
2023-11-01T06:41:35.831Z,13.42
2023-11-01T06:44:38.109Z,13.44
2023-11-01T06:47:40.485Z,13.51
2023-11-01T06:50:42.992Z,13.59
2023-11-01T06:53:45.247Z,13.61
2023-11-01T06:56:47.931Z,13.63
2023-11-01T06:59:50.149Z,13.79
2023-11-01T07:02:52.519Z,13.76
2023-11-01T07:05:54.734Z,13.86
2023-11-01T07:08:57.289Z,13.85
2023-11-01T07:11:59.547Z,13.94
2023-11-01T07:15:01.748Z,14.00
2023-11-01T07:18:04.186Z,14.00
2023-11-01T07:21:07.037Z,14.02
2023-11-01T07:24:09.419Z,14.00
2023-11-01T07:27:11.615Z,14.06
2023-11-01T07:30:13.952Z,14.09
2023-11-01T07:33:16.271Z,14.18
2023-11-01T07:36:19.088Z,14.15
2023-11-01T07:39:21.275Z,14.22
2023-11-01T07:42:23.503Z,14.20
2023-11-01T07:45:25.713Z,14.32
2023-11-01T07:48:27.968Z,14.32
2023-11-01T07:51:30.475Z,14.37
2023-11-01T07:54:33.176Z,14.37
2023-11-01T07:57:35.559Z,14.46
2023-11-01T08:00:37.722Z,14.45
2023-11-01T08:03:40.180Z,14.50
2023-11-01T08:06:42.466Z,14.63
2023-11-01T08:09:45.313Z,14.68
2023-11-01T08:12:47.578Z,14.63
2023-11-01T08:15:50.477Z,14.69
2023-11-01T08:50:43.087Z,15.05
2023-11-01T09:06:01.397Z,15.25
2023-11-01T09:21:44.282Z,15.48
2023-11-01T09:25:47.920Z,15.56
2023-11-01T09:41:17.834Z,15.72
2023-11-01T09:52:40.688Z,15.88
2023-11-01T09:56:18.468Z,15.90
2023-11-01T10:11:19.631Z,15.93
2023-11-01T10:15:36.898Z,16.07
2023-11-01T10:27:41.222Z,16.22
2023-11-01T10:32:12.446Z,16.27
2023-11-01T10:35:50.901Z,16.39
2023-11-01T10:43:43.414Z,16.48
2023-11-01T10:55:07.582Z,16.69
2023-11-01T10:59:00.012Z,16.67
2023-11-01T11:10:43.183Z,16.97
2023-11-01T11:19:02.389Z,17.13
2023-11-01T11:31:20.118Z,17.23
2023-11-01T11:59:47.685Z,17.79
2023-11-01T12:15:53.012Z,18.00
2023-11-01T12:23:23.553Z,18.04
2023-11-01T12:32:11.960Z,18.23
2023-11-01T12:49:16.137Z,18.41
2023-11-01T12:57:01.086Z,18.52
2023-11-01T13:09:26.911Z,18.65
2023-11-01T13:13:35.409Z,18.69
2023-11-01T13:17:19.076Z,18.72
2023-11-01T13:25:43.165Z,18.81
2023-11-01T13:30:07.720Z,18.79
2023-11-01T13:56:02.152Z,18.99
2023-11-01T14:07:22.244Z,19.02
2023-11-01T14:19:13.197Z,19.12
2023-11-01T15:00:18.591Z,18.90
2023-11-01T15:31:48.215Z,18.20
2023-11-01T15:56:52.638Z,17.18
2023-11-01T16:20:37.673Z,16.59
2023-11-01T16:23:55.662Z,16.59
2023-11-01T16:27:23.097Z,16.52
2023-11-01T16:39:47.875Z,16.30
2023-11-01T17:51:16.659Z,15.92
2023-11-01T18:06:46.926Z,15.81
2023-11-01T18:14:30.404Z,15.78
2023-11-01T18:38:33.925Z,15.53
2023-11-01T18:50:44.034Z,15.44
2023-11-01T18:54:41.568Z,15.47
2023-11-01T19:02:23.669Z,15.37
2023-11-01T19:26:29.630Z,15.05
2023-11-01T19:34:22.280Z,14.97
2023-11-01T19:42:19.810Z,14.91
2023-11-01T19:50:05.223Z,14.77
2023-11-01T19:57:51.274Z,14.65
2023-11-01T20:01:40.383Z,14.65
2023-11-01T20:05:27.220Z,14.51
2023-11-01T20:09:05.409Z,14.43
2023-11-01T20:20:45.770Z,14.27
2023-11-01T20:24:37.553Z,14.24
2023-11-01T20:40:14.297Z,13.96
2023-11-01T20:48:06.159Z,13.82
2023-11-01T21:00:11.195Z,13.75
2023-11-01T21:24:54.048Z,13.58
2023-11-01T21:37:32.026Z,13.56
2023-11-01T21:45:29.121Z,13.48
2023-11-01T21:49:23.059Z,13.52
2023-11-01T22:01:40.582Z,13.39
2023-11-01T22:17:52.201Z,13.25
2023-11-01T22:21:16.492Z,13.24
2023-11-01T22:24:52.409Z,13.23
2023-11-01T22:36:27.185Z,13.07
2023-11-01T23:00:36.154Z,13.12
2023-11-01T23:04:59.016Z,13.09
2023-11-01T23:36:57.156Z,13.13
2023-11-01T23:49:48.463Z,13.14
